Time;durP1;ratioP1;P1;durP2;ratioP2;P2;SDS_P1;SDS_P2;PMS_P1;PMS_P2;Temp;Humidity;BMP_temperature;BMP_pressure;BME280_temperature;BME280_humidity;BME280_pressure;Samples;Min_cycle;Max_cycle;Signal;HPM_P1;HPM_P2
2021/12/03 00:01:48;;;;;;;3.03;1.30;;;;;;;-1.46;100.00;99850.25;5072093;28;20225;-84
2021/12/03 00:04:13;;;;;;;1.07;1.03;;;;;;;-1.47;100.00;99845.16;5071853;28;20167;-85
2021/12/03 00:06:39;;;;;;;0.67;0.67;;;;;;;-1.48;100.00;99848.88;5070510;28;20545;-84
2021/12/03 00:09:06;;;;;;;3.97;2.87;;;;;;;-1.52;100.00;99840.53;5071638;28;20206;-84
2021/12/03 00:11:32;;;;;;;2.80;2.03;;;;;;;-1.55;100.00;99860.59;5071809;28;20214;-84
2021/12/03 00:13:57;;;;;;;2.00;1.80;;;;;;;-1.59;100.00;99846.09;5071721;28;20852;-84
2021/12/03 00:16:22;;;;;;;3.43;3.13;;;;;;;-1.60;100.00;99838.28;5071831;28;20174;-85
2021/12/03 00:18:48;;;;;;;5.27;4.77;;;;;;;-1.59;100.00;99842.56;5071599;28;20174;-84
2021/12/03 00:21:13;;;;;;;8.50;5.90;;;;;;;-1.60;100.00;99843.63;5071462;28;20171;-85
2021/12/03 00:23:40;;;;;;;1.57;1.47;;;;;;;-1.64;100.00;99829.94;5071378;28;20299;-84
2021/12/03 00:26:07;;;;;;;2.73;2.53;;;;;;;-1.64;100.00;99829.13;5071266;28;20167;-83
2021/12/03 00:28:33;;;;;;;4.17;3.77;;;;;;;-1.67;100.00;99829.63;5071575;28;20508;-84
2021/12/03 00:31:00;;;;;;;7.20;2.80;;;;;;;-1.70;100.00;99817.53;5071464;28;20412;-84
2021/12/03 00:33:26;;;;;;;6.47;5.93;;;;;;;-1.69;100.00;99831.72;5071413;28;20417;-84
2021/12/03 00:35:52;;;;;;;5.93;4.20;;;;;;;-1.68;100.00;99822.63;5071090;28;20424;-84
2021/12/03 00:38:18;;;;;;;4.27;3.90;;;;;;;-1.65;100.00;99824.81;5071124;28;20202;-84
2021/12/03 00:40:44;;;;;;;1.83;1.73;;;;;;;-1.66;100.00;99831.22;5071000;28;20417;-83
2021/12/03 00:43:10;;;;;;;4.97;3.93;;;;;;;-1.63;100.00;99833.41;5071185;28;20634;-83
2021/12/03 00:45:36;;;;;;;1.00;0.93;;;;;;;-1.61;100.00;99820.59;5071134;28;20466;-83
2021/12/03 00:48:03;;;;;;;1.37;1.23;;;;;;;-1.62;100.00;99825.13;5071030;28;20405;-84
2021/12/03 00:50:30;;;;;;;0.97;0.87;;;;;;;-1.61;100.00;99810.69;5070997;28;20179;-83
2021/12/03 00:52:57;;;;;;;5.03;4.63;;;;;;;-1.61;100.00;99820.59;5070828;28;20932;-83
2021/12/03 00:55:26;;;;;;;3.77;3.43;;;;;;;-1.58;100.00;99814.75;5070697;28;20551;-83
2021/12/03 00:57:53;;;;;;;4.53;4.17;;;;;;;-1.58;100.00;99812.09;5070800;28;20456;-83
2021/12/03 01:00:25;;;;;;;3.30;2.17;;;;;;;-1.57;100.00;99824.41;5069705;28;20421;-83
2021/12/03 01:02:56;;;;;;;2.40;2.23;;;;;;;-1.54;100.00;99834.63;5071171;28;20401;-84
2021/12/03 01:05:22;;;;;;;11.90;6.60;;;;;;;-1.53;100.00;99825.53;5070927;28;20500;-84
2021/12/03 01:07:47;;;;;;;4.90;4.53;;;;;;;-1.52;100.00;99824.47;5070742;28;20551;-84
2021/12/03 01:10:14;;;;;;;3.93;3.20;;;;;;;-1.51;100.00;99831.44;5070674;28;20236;-84
2021/12/03 01:12:39;;;;;;;5.97;3.37;;;;;;;-1.48;100.00;99828.25;5070807;28;20221;-83
2021/12/03 01:15:08;;;;;;;6.13;3.87;;;;;;;-1.44;100.00;99828.59;5070724;28;20830;-84
2021/12/03 01:17:34;;;;;;;4.57;3.40;;;;;;;-1.45;100.00;99818.91;5070932;28;20202;-83
2021/12/03 01:20:04;;;;;;;3.07;2.87;;;;;;;-1.43;100.00;99819.50;5071036;28;20421;-83
2021/12/03 01:22:29;;;;;;;2.27;2.00;;;;;;;-1.44;100.00;99824.06;5071350;28;20175;-84
2021/12/03 01:24:55;;;;;;;7.93;4.43;;;;;;;-1.43;100.00;99820.31;5070741;28;21053;-83
2021/12/03 01:27:20;;;;;;;5.63;4.33;;;;;;;-1.36;100.00;99812.09;5070981;28;20528;-84
2021/12/03 01:29:45;;;;;;;5.57;5.07;;;;;;;-1.30;100.00;99819.16;5071202;28;20178;-84
2021/12/03 01:32:11;;;;;;;2.37;2.17;;;;;;;-1.27;100.00;99829.34;5070910;28;20212;-83
2021/12/03 01:34:36;;;;;;;3.43;3.23;;;;;;;-1.24;100.00;99836.91;5071088;28;20170;-83
2021/12/03 01:37:02;;;;;;;3.03;2.70;;;;;;;-1.22;100.00;99832.91;5071140;28;20594;-84
2021/12/03 01:39:28;;;;;;;3.53;2.57;;;;;;;-1.23;100.00;99833.97;5079218;28;20182;-84
2021/12/03 01:41:53;;;;;;;3.90;2.70;;;;;;;-1.18;100.00;99838.56;5078960;28;20179;-84
2021/12/03 01:44:18;;;;;;;4.37;3.87;;;;;;;-1.15;100.00;99835.41;5074118;28;20175;-83
2021/12/03 01:46:44;;;;;;;2.63;2.43;;;;;;;-1.14;100.00;99842.41;5071104;28;20747;-84
2021/12/03 01:49:12;;;;;;;2.53;2.33;;;;;;;-1.10;100.00;99842.69;5070746;28;20645;-83
2021/12/03 01:51:37;;;;;;;0.20;0.20;;;;;;;-1.11;100.00;99833.03;5070436;28;20653;-84
2021/12/03 01:54:03;;;;;;;0.87;0.53;;;;;;;-1.09;100.00;99831.72;5070465;28;20421;-84
2021/12/03 01:56:28;;;;;;;4.43;2.53;;;;;;;-1.06;100.00;99835.78;5070235;28;20265;-84
2021/12/03 01:58:54;;;;;;;1.60;1.50;;;;;;;-1.08;100.00;99830.66;5070350;28;20174;-84
2021/12/03 02:01:24;;;;;;;4.00;3.50;;;;;;;-1.06;100.00;99836.56;5070325;28;20182;-83
2021/12/03 02:03:53;;;;;;;1.60;1.50;;;;;;;-1.03;100.00;99838.75;5070338;28;20420;-82
2021/12/03 02:06:20;;;;;;;2.20;2.10;;;;;;;-1.02;100.00;99845.72;5070366;28;20427;-83
2021/12/03 02:08:46;;;;;;;1.60;1.40;;;;;;;-1.02;100.00;99845.72;5073788;28;20433;-83
2021/12/03 02:11:13;;;;;;;27.20;4.87;;;;;;;-1.00;100.00;99853.56;5074204;28;20459;-83
2021/12/03 02:13:39;;;;;;;1.70;1.60;;;;;;;-1.01;100.00;99857.28;5074136;28;20432;-83
2021/12/03 02:16:06;;;;;;;1.13;0.67;;;;;;;-1.00;100.00;99867.75;5074229;28;20432;-83
2021/12/03 02:18:32;;;;;;;2.73;1.23;;;;;;;-0.93;100.00;99868.38;5073908;28;20468;-84
2021/12/03 02:20:59;;;;;;;2.27;2.07;;;;;;;-0.93;100.00;99873.72;5074511;28;20499;-83
2021/12/03 02:23:28;;;;;;;1.93;0.90;;;;;;;-0.94;100.00;99869.44;5073897;28;20563;-84
2021/12/03 02:25:53;;;;;;;1.57;1.47;;;;;;;-0.94;100.00;99866.75;5073890;28;20575;-84
2021/12/03 02:28:21;;;;;;;2.13;2.00;;;;;;;-0.94;100.00;99871.31;5074139;28;20775;-83
2021/12/03 02:30:47;;;;;;;1.03;1.03;;;;;;;-1.00;100.00;99869.63;5073774;28;20174;-83
2021/12/03 02:33:13;;;;;;;2.10;1.60;;;;;;;-1.06;100.00;99867.94;5073851;28;20974;-82
2021/12/03 02:35:40;;;;;;;3.77;3.47;;;;;;;-1.12;100.00;99872.44;5073682;28;20416;-83
2021/12/03 02:38:07;;;;;;;3.93;3.43;;;;;;;-1.18;100.00;99867.25;5073609;28;20206;-82
2021/12/03 02:40:32;;;;;;;2.83;2.63;;;;;;;-1.24;100.00;99869.06;5073411;28;20420;-84
2021/12/03 02:42:58;;;;;;;6.03;3.10;;;;;;;-1.27;100.00;99873.03;5073588;28;20550;-82
2021/12/03 02:45:23;;;;;;;0.83;0.77;;;;;;;-1.31;100.00;99871.91;5073469;28;20175;-84
2021/12/03 02:47:49;;;;;;;0.93;0.93;;;;;;;-1.34;100.00;99864.34;5073543;28;20184;-83
2021/12/03 02:50:17;;;;;;;1.10;0.97;;;;;;;-1.36;100.00;99866.47;5073433;28;20202;-83
2021/12/03 02:52:45;;;;;;;20.77;2.50;;;;;;;-1.35;100.00;99864.59;5073609;28;20267;-84
2021/12/03 02:55:11;;;;;;;4.50;2.63;;;;;;;-1.36;100.00;99858.44;5073367;28;20566;-83
2021/12/03 02:57:37;;;;;;;1.13;1.07;;;;;;;-1.33;100.00;99867.84;5073334;28;20513;-83
2021/12/03 03:00:09;;;;;;;5.20;2.00;;;;;;;-1.33;100.00;99863.28;5073335;28;20421;-83
2021/12/03 03:02:34;;;;;;;3.17;2.97;;;;;;;-1.33;100.00;99865.97;5073854;28;20175;-84
2021/12/03 03:04:59;;;;;;;1.77;1.67;;;;;;;-1.30;100.00;99857.47;5073104;28;20413;-84
2021/12/03 03:07:25;;;;;;;5.90;2.53;;;;;;;-1.28;100.00;99859.91;5073267;28;20178;-84
2021/12/03 03:09:50;;;;;;;3.63;3.30;;;;;;;-1.21;100.00;99863.19;5073094;28;20221;-84
2021/12/03 03:12:16;;;;;;;2.33;2.13;;;;;;;-1.16;100.00;99870.47;5073166;28;20653;-83
2021/12/03 03:14:44;;;;;;;2.43;1.73;;;;;;;-1.17;100.00;99872.34;5072981;28;20175;-83
2021/12/03 03:17:10;;;;;;;2.63;2.43;;;;;;;-1.13;100.00;99872.69;5072996;28;20195;-83
2021/12/03 03:19:35;;;;;;;4.67;4.30;;;;;;;-1.10;100.00;99877.53;5071813;28;20891;-83
2021/12/03 03:22:01;;;;;;;8.03;3.67;;;;;;;-1.09;100.00;99874.59;5072951;28;20178;-85
2021/12/03 03:24:27;;;;;;;2.37;2.17;;;;;;;-1.09;100.00;99881.84;5073121;28;20174;-84
2021/12/03 03:26:52;;;;;;;2.80;2.60;;;;;;;-1.09;100.00;99874.59;5071484;28;20437;-82
2021/12/03 03:29:18;;;;;;;5.20;3.83;;;;;;;-1.10;100.00;99866.81;5072829;28;20178;-83
2021/12/03 03:31:44;;;;;;;9.90;5.93;;;;;;;-1.11;100.00;99882.09;5072750;28;20216;-82
2021/12/03 03:34:09;;;;;;;4.10;3.80;;;;;;;-1.07;100.00;99872.47;5072644;28;20189;-83
2021/12/03 03:36:37;;;;;;;7.07;4.60;;;;;;;-1.11;100.00;99875.91;5072664;28;20170;-83
2021/12/03 03:39:06;;;;;;;1.77;1.67;;;;;;;-1.08;100.00;99864.69;5072698;28;20537;-83
2021/12/03 03:41:31;;;;;;;3.33;3.03;;;;;;;-1.10;100.00;99878.34;5072357;28;20457;-82
2021/12/03 03:43:57;;;;;;;3.00;2.70;;;;;;;-1.06;100.00;99870.63;5072438;28;20440;-83
2021/12/03 03:46:23;;;;;;;5.00;4.50;;;;;;;-1.07;100.00;99877.03;5072237;28;20654;-84
2021/12/03 03:48:48;;;;;;;1.33;1.07;;;;;;;-1.01;100.00;99876.06;5072594;28;20688;-83
2021/12/03 03:51:14;;;;;;;4.97;4.47;;;;;;;-0.96;100.00;99884.16;5072380;28;20216;-83
2021/12/03 03:53:41;;;;;;;1.97;1.77;;;;;;;-0.92;100.00;99887.94;5072322;28;20174;-83
2021/12/03 03:56:07;;;;;;;2.17;2.07;;;;;;;-0.92;100.00;99883.41;5072201;28;20174;-84
2021/12/03 03:58:33;;;;;;;4.00;3.33;;;;;;;-0.90;100.00;99896.53;5072086;28;20471;-85
2021/12/03 04:00:58;;;;;;;3.43;3.13;;;;;;;-0.92;100.00;99880.72;5072163;28;20420;-84
2021/12/03 04:03:25;;;;;;;4.27;3.00;;;;;;;-0.90;100.00;99885.81;5070869;28;20175;-83
2021/12/03 04:05:50;;;;;;;5.03;4.53;;;;;;;-0.87;100.00;99882.63;5070651;28;20197;-84
2021/12/03 04:08:16;;;;;;;2.60;2.40;;;;;;;-0.88;100.00;99878.34;5071977;28;20456;-83
2021/12/03 04:10:41;;;;;;;4.17;3.77;;;;;;;-0.87;100.00;99873.78;5071972;28;20178;-84
2021/12/03 04:13:07;;;;;;;1.40;0.87;;;;;;;-0.85;100.00;99875.19;5070623;28;20209;-84
2021/12/03 04:15:32;;;;;;;6.90;3.33;;;;;;;-0.80;100.00;99882.47;5071859;28;20197;-83
2021/12/03 04:17:58;;;;;;;1.63;1.53;;;;;;;-0.83;100.00;99872.25;5071756;28;20214;-84
2021/12/03 04:20:23;;;;;;;10.57;5.27;;;;;;;-0.80;100.00;99869.88;5071753;28;20170;-84
2021/12/03 04:22:50;;;;;;;2.03;1.87;;;;;;;-0.79;100.00;99876.84;5071715;28;20178;-83
2021/12/03 04:25:21;;;;;;;10.23;4.20;;;;;;;-0.75;100.00;99861.06;5070298;28;20678;-83
2021/12/03 04:27:47;;;;;;;3.23;3.03;;;;;;;-0.75;100.00;99867.22;5071713;28;20412;-83
2021/12/03 04:30:24;;;;;;;2.30;2.10;;;;;;;-0.77;100.00;99868.53;5071412;28;20417;-83
2021/12/03 04:32:51;;;;;;;8.80;3.27;;;;;;;-0.75;100.00;99872.59;5071968;28;20405;-83
2021/12/03 04:35:17;;;;;;;1.17;1.17;;;;;;;-0.73;100.00;99872.34;5071654;28;20459;-83
2021/12/03 04:37:43;;;;;;;5.30;4.50;;;;;;;-0.72;100.00;99874.00;5053692;28;20496;-83
2021/12/03 04:40:11;;;;;;;7.87;5.10;;;;;;;-0.69;100.00;99873.47;5071140;28;20587;-83
2021/12/03 04:42:37;;;;;;;2.67;2.47;;;;;;;-0.69;100.00;99866.25;5071415;28;20175;-82
2021/12/03 04:45:05;;;;;;;3.80;2.87;;;;;;;-0.71;100.00;99879.09;5071163;28;20478;-84
2021/12/03 04:47:30;;;;;;;0.33;0.33;;;;;;;-0.71;100.00;99887.16;5069627;28;20711;-83
2021/12/03 04:49:56;;;;;;;1.63;1.53;;;;;;;-0.73;100.00;99880.38;5069862;28;20425;-83
2021/12/03 04:52:21;;;;;;;3.03;2.83;;;;;;;-0.72;100.00;99880.16;5071169;28;20231;-82
2021/12/03 04:54:46;;;;;;;5.00;3.93;;;;;;;-0.71;100.00;99886.34;5069587;28;20266;-84
2021/12/03 04:57:12;;;;;;;8.87;4.30;;;;;;;-0.70;100.00;99877.22;5071172;28;20264;-83
2021/12/03 04:59:37;;;;;;;2.80;1.63;;;;;;;-0.68;100.00;99891.19;5071001;28;20183;-82
2021/12/03 05:02:03;;;;;;;1.37;1.27;;;;;;;-0.69;100.00;99881.53;5070945;28;20178;-83
2021/12/03 05:04:36;;;;;;;2.47;2.23;;;;;;;-0.70;100.00;99875.34;5070960;28;20205;-83
2021/12/03 05:07:16;;;;;;;2.73;2.33;;;;;;;-0.68;100.00;99875.91;5070812;28;20178;-83
2021/12/03 05:09:41;;;;;;;6.35;5.75;;;;;;;-0.56;100.00;99883.81;5069645;28;20463;-84
2021/12/03 05:12:07;;;;;;;2.60;2.50;;;;;;;-0.54;100.00;99894.28;5070742;28;20249;-83
2021/12/03 05:14:33;;;;;;;3.73;3.27;;;;;;;-0.54;100.00;99881.69;5070762;28;20179;-82
2021/12/03 05:16:58;;;;;;;11.87;5.80;;;;;;;-0.52;100.00;99881.44;5070783;28;20513;-83
2021/12/03 05:19:23;;;;;;;4.43;4.10;;;;;;;-0.54;100.00;99864.78;5070765;28;20204;-82
2021/12/03 05:21:49;;;;;;;3.73;3.43;;;;;;;-0.54;100.00;99880.88;5071019;28;20175;-83
2021/12/03 05:24:16;;;;;;;13.50;6.43;;;;;;;-0.53;100.00;99877.94;5069431;28;20248;-83
2021/12/03 05:26:43;;;;;;;5.40;4.23;;;;;;;-0.54;100.00;99867.47;5070683;28;20177;-82
2021/12/03 05:29:09;;;;;;;2.33;2.13;;;;;;;-0.54;100.00;99872.84;5070726;28;20991;-82
2021/12/03 05:31:36;;;;;;;1.43;1.33;;;;;;;-0.55;100.00;99877.38;5070617;28;20826;-82
2021/12/03 05:34:03;;;;;;;3.70;2.10;;;;;;;-0.57;100.00;99867.97;5070588;28;20525;-83
2021/12/03 05:36:29;;;;;;;3.67;3.20;;;;;;;-0.55;100.00;99882.75;5070431;28;20793;-83
2021/12/03 05:38:55;;;;;;;3.93;3.53;;;;;;;-0.52;100.00;99881.44;5070709;28;20425;-82
2021/12/03 05:41:20;;;;;;;6.90;4.30;;;;;;;-0.54;100.00;99881.69;5069189;28;20575;-83
2021/12/03 05:43:46;;;;;;;3.93;3.63;;;;;;;-0.53;100.00;99893.22;5070111;28;20469;-82
2021/12/03 05:46:11;;;;;;;1.33;1.33;;;;;;;-0.51;100.00;99896.47;5070917;28;20175;-83
2021/12/03 05:48:37;;;;;;;4.00;3.70;;;;;;;-0.50;100.00;99901.59;5070533;28;20197;-83
2021/12/03 05:51:03;;;;;;;6.57;3.87;;;;;;;-0.50;100.00;99887.34;5069223;28;20649;-83
2021/12/03 05:53:28;;;;;;;2.83;2.63;;;;;;;-0.50;100.00;99906.13;5070569;28;20171;-83
2021/12/03 05:55:54;;;;;;;5.57;3.67;;;;;;;-0.49;100.00;99907.75;5070269;28;20394;-83
2021/12/03 05:58:20;;;;;;;7.53;6.80;;;;;;;-0.48;100.00;99910.19;5070428;28;20197;-83
2021/12/03 06:00:46;;;;;;;6.37;4.97;;;;;;;-0.44;100.00;99907.78;5070430;28;20707;-83
2021/12/03 06:03:11;;;;;;;2.40;2.13;;;;;;;-0.40;100.00;99919.66;5070514;28;20691;-82
2021/12/03 06:05:40;;;;;;;1.97;1.50;;;;;;;-0.39;100.00;99921.28;5070336;28;20504;-83
2021/12/03 06:08:05;;;;;;;2.40;2.20;;;;;;;-0.35;100.00;99925.09;5070382;28;20700;-83
2021/12/03 06:10:31;;;;;;;2.83;2.63;;;;;;;-0.37;100.00;99921.84;5070351;28;20437;-83
2021/12/03 06:12:56;;;;;;;5.50;3.27;;;;;;;-0.36;100.00;99921.59;5070375;28;20185;-82
2021/12/03 06:15:22;;;;;;;12.07;4.73;;;;;;;-0.35;100.00;99917.84;5070068;28;20178;-82
2021/12/03 06:17:48;;;;;;;4.77;4.37;;;;;;;-0.34;100.00;99919.47;5070188;28;20252;-83
2021/12/03 06:20:14;;;;;;;3.47;3.17;;;;;;;-0.29;100.00;99918.69;5070196;28;20174;-82
2021/12/03 06:22:40;;;;;;;1.93;1.83;;;;;;;-0.25;100.00;99917.16;5070209;28;20186;-83
2021/12/03 06:25:08;;;;;;;5.37;4.83;;;;;;;-0.22;100.00;99927.38;5069968;28;20475;-82
2021/12/03 06:27:33;;;;;;;3.70;2.93;;;;;;;-0.22;100.00;99915.81;5070087;28;20436;-82
2021/12/03 06:29:59;;;;;;;0.77;0.57;;;;;;;-0.22;100.00;99919.31;5070285;28;20416;-82
2021/12/03 06:32:25;;;;;;;4.53;3.57;;;;;;;-0.21;100.00;99920.94;5070015;28;20219;-82
2021/12/03 06:34:51;;;;;;;1.63;1.53;;;;;;;-0.18;100.00;99919.63;5069900;28;20205;-82
2021/12/03 06:37:16;;;;;;;2.70;2.47;;;;;;;-0.15;100.00;99924.47;5070092;28;20456;-82
2021/12/03 06:39:42;;;;;;;4.20;3.80;;;;;;;-0.10;100.00;99919.97;5069832;28;20351;-82
2021/12/03 06:42:07;;;;;;;3.13;2.93;;;;;;;-0.13;100.00;99925.84;5069688;28;20228;-82
2021/12/03 06:44:33;;;;;;;1.60;1.47;;;;;;;-0.13;100.00;99923.19;5070160;28;20579;-82
2021/12/03 06:47:02;;;;;;;12.33;3.87;;;;;;;-0.14;100.00;99918.06;5070139;28;20170;-82
2021/12/03 06:49:29;;;;;;;8.47;2.13;;;;;;;-0.14;100.00;99929.63;5070728;28;20405;-83
2021/12/03 06:52:00;;;;;;;2.13;1.47;;;;;;;-0.17;100.00;99931.97;5069972;28;20416;-82
2021/12/03 06:54:29;;;;;;;3.40;3.10;;;;;;;-0.14;100.00;99929.63;5072323;28;20445;-82
2021/12/03 06:56:54;;;;;;;2.07;1.93;;;;;;;-0.14;100.00;99936.84;5073233;28;20444;-82
2021/12/03 06:59:21;;;;;;;2.00;1.90;;;;;;;-0.08;100.00;99936.63;5073551;28;20424;-82
2021/12/03 07:01:47;;;;;;;2.67;2.47;;;;;;;-0.07;100.00;99932.06;5073520;28;20170;-82
2021/12/03 07:04:12;;;;;;;3.27;3.07;;;;;;;-0.03;100.00;99936.69;5073318;28;20824;-82
2021/12/03 07:06:38;;;;;;;2.77;2.50;;;;;;;-0.03;100.00;99951.97;5073257;28;20201;-82
2021/12/03 07:09:05;;;;;;;3.30;3.00;;;;;;;-0.02;100.00;99938.28;5073270;28;20244;-83
2021/12/03 07:11:31;;;;;;;1.07;1.07;;;;;;;-0.01;100.00;99937.22;5072031;28;20421;-82
2021/12/03 07:13:56;;;;;;;2.93;2.73;;;;;;;0.06;100.00;99944.28;5073544;28;20424;-81
2021/12/03 07:16:22;;;;;;;4.57;4.17;;;;;;;0.11;100.00;99938.94;5073169;28;20206;-82
2021/12/03 07:18:47;;;;;;;4.20;2.77;;;;;;;0.15;100.00;99942.78;5071747;28;20214;-82
2021/12/03 07:21:13;;;;;;;3.40;2.20;;;;;;;0.17;100.00;99943.31;5073032;28;20180;-84
2021/12/03 07:23:39;;;;;;;1.73;1.63;;;;;;;0.21;100.00;99942.53;5073042;28;20181;-85
2021/12/03 07:26:04;;;;;;;1.23;1.23;;;;;;;0.26;100.00;99949.81;5073141;28;20210;-83
2021/12/03 07:28:30;;;;;;;4.47;3.63;;;;;;;0.29;100.00;99938.59;5071631;28;20183;-82
2021/12/03 07:30:56;;;;;;;2.40;2.20;;;;;;;0.35;100.00;99939.44;5073058;28;20209;-83
2021/12/03 07:33:22;;;;;;;4.90;3.53;;;;;;;0.38;100.00;99938.91;5071711;28;20449;-82
2021/12/03 07:35:47;;;;;;;0.90;0.70;;;;;;;0.43;100.00;99949.69;5072856;28;20594;-82
2021/12/03 07:38:15;;;;;;;3.00;2.70;;;;;;;0.44;100.00;99943.28;5072625;28;20205;-82
2021/12/03 07:40:42;;;;;;;1.75;1.15;;;;;;;0.48;100.00;99950.56;5071080;28;20075;-80
2021/12/03 07:43:07;;;;;;;8.37;4.30;;;;;;;0.48;100.00;99941.69;5072750;28;20594;-80
2021/12/03 07:45:33;;;;;;;3.33;3.13;;;;;;;0.50;100.00;99937.69;5072775;28;20448;-80
2021/12/03 07:47:58;;;;;;;0.80;0.80;;;;;;;0.54;100.00;99930.72;5070420;28;20205;-80
2021/12/03 07:50:24;;;;;;;12.70;4.50;;;;;;;0.56;100.00;99944.69;5063853;28;20265;-80
2021/12/03 07:52:49;;;;;;;1.40;1.30;;;;;;;0.58;100.00;99942.59;5072438;28;20174;-80
2021/12/03 07:55:14;;;;;;;18.10;4.77;;;;;;;0.60;100.00;99945.00;5072185;28;20258;-81
2021/12/03 07:57:40;;;;;;;1.63;1.33;;;;;;;0.64;100.00;99945.31;5072425;28;20194;-80
2021/12/03 08:00:07;;;;;;;2.20;1.80;;;;;;;0.65;100.00;99946.91;5072434;28;20171;-80
2021/12/03 08:02:32;;;;;;;4.13;1.63;;;;;;;0.66;100.00;99946.66;5071055;28;20181;-80
2021/12/03 08:04:58;;;;;;;3.27;2.93;;;;;;;0.65;100.00;99934.28;5071715;28;20421;-80
2021/12/03 08:07:24;;;;;;;5.17;4.13;;;;;;;0.64;100.00;99935.34;5072588;28;20171;-80
2021/12/03 08:09:50;;;;;;;2.13;1.93;;;;;;;0.67;100.00;99939.41;5072164;28;20178;-80
2021/12/03 08:12:15;;;;;;;3.23;2.90;;;;;;;0.68;100.00;99938.31;5070491;28;20452;-80
2021/12/03 08:14:40;;;;;;;3.67;3.30;;;;;;;0.62;100.00;99934.00;5072171;28;20178;-80
2021/12/03 08:17:07;;;;;;;1.03;1.03;;;;;;;0.65;100.00;99934.28;5071872;28;20309;-80
2021/12/03 08:19:33;;;;;;;1.60;1.37;;;;;;;0.63;100.00;99930.25;5071401;28;21012;-80
2021/12/03 08:21:58;;;;;;;2.60;1.50;;;;;;;0.58;100.00;99926.47;5071286;28;20187;-79
2021/12/03 08:24:24;;;;;;;2.73;1.80;;;;;;;0.56;100.00;99919.69;5071273;28;20174;-80
2021/12/03 08:26:49;;;;;;;6.93;2.43;;;;;;;0.54;100.00;99914.59;5071552;28;20627;-79
2021/12/03 08:29:14;;;;;;;0.37;0.30;;;;;;;0.56;100.00;99922.38;5071718;28;20264;-81
2021/12/03 08:31:40;;;;;;;0.53;0.53;;;;;;;0.57;100.00;99927.50;5073483;28;20405;-80
2021/12/03 08:34:06;;;;;;;3.30;1.33;;;;;;;0.61;100.00;99918.94;5081807;28;20535;-80
2021/12/03 08:36:31;;;;;;;6.40;2.50;;;;;;;0.63;100.00;99903.38;5073191;28;20228;-80
2021/12/03 08:38:57;;;;;;;3.07;2.33;;;;;;;0.66;100.00;99917.09;5072701;28;20468;-80
2021/12/03 08:41:22;;;;;;;1.10;1.07;;;;;;;0.69;100.00;99919.25;5071761;28;20224;-80
2021/12/03 08:43:48;;;;;;;2.07;1.90;;;;;;;0.71;100.00;99916.31;5071495;28;20183;-80
2021/12/03 08:46:29;;;;;;;3.07;2.77;;;;;;;0.75;100.00;99923.59;5071352;28;20179;-76
2021/12/03 08:49:04;;;;;;;7.77;1.33;;;;;;;0.76;100.00;99922.53;5071655;28;20425;-79
2021/12/03 08:51:35;;;;;;;12.33;4.60;;;;;;;0.76;100.00;99919.03;5071491;28;20426;-78
2021/12/03 08:56:46;;;;;;;2.53;2.30;;;;;;;0.76;100.00;99941.34;5039531;28;20512;-79
2021/12/03 08:59:14;;;;;;;2.80;2.67;;;;;;;0.74;100.00;99926.56;5071185;28;20861;-79
2021/12/03 09:01:40;;;;;;;5.90;2.57;;;;;;;0.75;100.00;99949.69;5071311;28;20183;-79
2021/12/03 09:04:06;;;;;;;3.77;2.93;;;;;;;0.78;100.00;99946.47;5071190;28;20865;-80
2021/12/03 09:06:32;;;;;;;2.07;1.50;;;;;;;0.78;100.00;99944.59;5071032;28;20171;-79
2021/12/03 09:08:57;;;;;;;1.77;1.67;;;;;;;0.82;100.00;99945.69;5071257;28;20492;-80
2021/12/03 09:11:24;;;;;;;2.80;2.60;;;;;;;0.81;100.00;99943.25;5071010;28;20557;-79
2021/12/03 09:13:51;;;;;;;1.40;1.40;;;;;;;0.83;100.00;99941.13;5071092;28;20622;-79
2021/12/03 09:16:19;;;;;;;0.00;0.00;;;;;;;0.84;100.00;99943.53;5070500;28;20478;-79
2021/12/03 09:18:45;;;;;;;1.43;0.53;;;;;;;0.88;100.00;99955.41;5070470;28;20464;-80
2021/12/03 09:26:25;;;;;;;13.93;4.13;;;;;;;0.96;100.00;99943.34;5070785;28;20423;-80
2021/12/03 09:29:06;;;;;;;2.93;2.53;;;;;;;1.01;100.00;99935.28;5070858;28;20420;-80
2021/12/03 09:31:34;;;;;;;2.73;1.10;;;;;;;1.07;100.00;99936.16;5070747;28;20520;-80
2021/12/03 09:34:00;;;;;;;1.93;1.17;;;;;;;1.06;100.00;99932.66;5070668;28;20453;-79
2021/12/03 09:36:26;;;;;;;3.03;2.83;;;;;;;1.07;100.00;99928.09;5070697;28;20464;-79
2021/12/03 09:38:52;;;;;;;3.63;3.27;;;;;;;1.07;100.00;99939.66;5070748;28;20254;-79
2021/12/03 09:41:20;;;;;;;3.60;3.30;;;;;;;1.09;100.00;99921.38;5069189;28;20428;-79
2021/12/03 09:43:48;;;;;;;1.97;1.63;;;;;;;1.14;100.00;99918.69;5070436;28;20648;-79
2021/12/03 09:46:19;;;;;;;1.50;1.13;;;;;;;1.18;100.00;99911.75;5070024;28;20424;-79
2021/12/03 09:51:47;;;;;;;1.90;1.70;;;;;;;1.29;100.00;99914.44;5060084;28;20489;-79
2021/12/03 09:56:38;;;;;;;0.57;0.57;;;;;;;1.40;100.00;99910.72;5069373;28;20421;-80
2021/12/03 10:08:19;;;;;;;1.20;1.10;;;;;;;1.57;100.00;99887.09;5070434;28;20500;-79
2021/12/03 10:12:57;;;;;;;1.20;1.10;;;;;;;1.58;98.86;99877.13;5069029;28;20801;-79
2021/12/03 10:15:33;;;;;;;1.60;1.33;;;;;;;1.67;99.34;99880.94;5066128;28;20186;-80
2021/12/03 10:20:49;;;;;;;2.10;2.00;;;;;;;1.82;97.90;99875.56;5070041;28;20428;-79
2021/12/03 10:34:59;;;;;;;0.83;0.83;;;;;;;1.90;97.14;99863.47;5068987;28;20505;-78
2021/12/03 10:43:22;;;;;;;2.43;2.17;;;;;;;1.97;97.14;99869.38;5073865;28;20420;-76
2021/12/03 10:46:19;;;;;;;2.00;1.50;;;;;;;1.99;97.54;99861.84;5073307;28;20485;-77
2021/12/03 10:49:05;;;;;;;3.63;3.23;;;;;;;2.04;97.74;99862.66;5070287;28;20936;-81
2021/12/03 11:34:39;;;;;;;1.80;1.57;;;;;;;2.27;98.17;99822.75;5072890;28;20638;-79
2021/12/03 11:52:06;;;;;;;4.53;3.93;;;;;;;2.20;98.62;99804.19;5060310;28;20503;-81
2021/12/03 12:22:37;;;;;;;1.87;1.73;;;;;;;2.31;97.17;99754.56;5071843;28;20412;-78
2021/12/03 12:39:19;;;;;;;1.77;1.67;;;;;;;2.47;94.51;99727.56;5071804;28;21020;-77
2021/12/03 12:58:17;;;;;;;9.20;0.77;;;;;;;2.41;91.64;99723.28;5070953;28;21028;-79
2021/12/03 13:21:59;;;;;;;2.60;1.43;;;;;;;2.40;91.49;99706.28;5064399;28;20441;-78
2021/12/03 13:27:57;;;;;;;3.30;1.30;;;;;;;2.43;91.33;99713.81;5070508;28;20593;-80
2021/12/03 14:48:46;;;;;;;3.33;1.67;;;;;;;2.43;88.26;99615.97;5071939;28;20674;-78
2021/12/03 14:56:47;;;;;;;1.03;0.60;;;;;;;2.38;88.27;99606.84;5053313;28;20274;-79
2021/12/03 14:59:22;;;;;;;0.50;0.40;;;;;;;2.39;87.87;99608.44;5053332;28;20544;-79
2021/12/03 15:02:03;;;;;;;1.00;1.00;;;;;;;2.38;87.98;99598.75;5053217;28;20844;-80
2021/12/03 15:10:14;;;;;;;0.93;0.93;;;;;;;2.41;88.08;99578.53;5047465;28;20616;-79
2021/12/03 15:18:41;;;;;;;1.90;1.23;;;;;;;2.37;87.98;99569.38;5056174;28;20473;-80
2021/12/03 15:31:59;;;;;;;5.73;0.77;;;;;;;2.39;88.17;99559.94;5065783;28;20424;-80
2021/12/03 15:37:19;;;;;;;0.57;0.57;;;;;;;2.38;88.66;99557.53;5072402;28;20536;-81
2021/12/03 16:08:40;;;;;;;1.67;1.30;;;;;;;2.30;87.88;99488.03;5072349;28;20439;-81
2021/12/03 16:21:54;;;;;;;0.50;0.50;;;;;;;2.37;85.90;99483.13;5072104;28;20449;-81
2021/12/03 16:51:33;;;;;;;0.90;0.77;;;;;;;2.33;86.00;99447.88;5071175;28;20409;-79
2021/12/03 16:54:10;;;;;;;0.97;0.80;;;;;;;2.37;85.37;99454.28;5071179;28;20408;-81
2021/12/03 16:56:42;;;;;;;4.67;1.20;;;;;;;2.35;85.85;99455.66;5070677;28;20478;-80
2021/12/03 16:59:08;;;;;;;0.00;0.00;;;;;;;2.35;86.29;99475.34;5069602;28;20525;-78
2021/12/03 17:09:39;;;;;;;24.67;0.60;;;;;;;2.23;89.47;99468.69;5071215;28;20923;-81
2021/12/03 17:12:15;;;;;;;4.50;1.90;;;;;;;2.14;90.21;99465.78;5071001;28;20509;-79
2021/12/03 17:54:43;;;;;;;1.10;1.00;;;;;;;2.07;96.04;99387.16;5070682;28;20455;-76
2021/12/03 17:57:11;;;;;;;0.83;0.83;;;;;;;2.08;95.88;99386.88;5070433;28;20408;-76
2021/12/03 17:59:46;;;;;;;0.00;0.00;;;;;;;2.10;96.18;99394.69;5068609;28;20423;-78
2021/12/03 18:12:45;;;;;;;0.43;0.30;;;;;;;2.25;93.73;99402.66;5070273;28;20437;-77
2021/12/03 18:16:30;;;;;;;0.57;0.47;;;;;;;2.29;94.09;99405.56;5070021;28;20170;-77
2021/12/03 18:48:47;;;;;;;0.47;0.47;;;;;;;2.13;98.34;99351.00;5050571;28;20414;-79
2021/12/03 18:51:28;;;;;;;0.87;0.50;;;;;;;2.15;99.61;99350.72;5053691;28;20398;-77
2021/12/03 18:56:29;;;;;;;0.63;0.40;;;;;;;2.09;100.00;99340.00;5053313;28;20410;-78
2021/12/03 18:58:58;;;;;;;0.53;0.53;;;;;;;2.05;100.00;99355.13;5053370;28;20469;-77
2021/12/03 19:01:29;;;;;;;0.37;0.37;;;;;;;2.02;100.00;99331.44;5053424;28;20418;-78
2021/12/03 19:06:46;;;;;;;0.70;0.70;;;;;;;1.95;100.00;99330.16;5053907;28;20459;-76